createdAt,value
2023-08-05T00:00:19.006Z,4.00
2023-08-05T00:02:45.665Z,4.00
2023-08-05T00:05:13.292Z,3.53
2023-08-05T00:07:40.025Z,4.18
2023-08-05T00:10:07.191Z,4.15
2023-08-05T00:12:33.857Z,3.85
2023-08-05T00:15:01.669Z,3.93
2023-08-05T00:17:28.372Z,3.65
2023-08-05T00:19:55.112Z,3.95
2023-08-05T00:22:22.050Z,3.75
2023-08-05T00:24:48.756Z,3.67
2023-08-05T00:27:15.497Z,4.47
2023-08-05T00:29:42.224Z,3.95
2023-08-05T00:32:08.976Z,4.00
2023-08-05T00:34:35.693Z,3.50
2023-08-05T00:37:02.578Z,3.90
2023-08-05T00:39:29.426Z,4.47
2023-08-05T00:41:56.694Z,3.97
2023-08-05T00:44:24.566Z,3.85
2023-08-05T00:46:52.826Z,3.78
2023-08-05T00:49:20.348Z,3.90
2023-08-05T00:51:47.499Z,3.63
2023-08-05T00:54:14.232Z,3.78
2023-08-05T00:56:41.352Z,4.22
2023-08-05T00:59:08.065Z,3.90
2023-08-05T01:01:34.932Z,3.92
2023-08-05T01:04:01.660Z,3.80
2023-08-05T01:06:29.213Z,4.07
2023-08-05T01:08:56.933Z,4.00
2023-08-05T01:11:24.632Z,3.72
2023-08-05T01:13:51.389Z,3.92
2023-08-05T01:16:18.201Z,3.70
2023-08-05T01:18:45.629Z,3.75
2023-08-05T01:21:43.498Z,4.00
2023-08-05T01:24:20.156Z,3.65
2023-08-05T01:26:48.637Z,3.70
2023-08-05T01:29:15.608Z,3.60
2023-08-05T01:31:45.030Z,3.42
2023-08-05T01:34:12.435Z,4.15
2023-08-05T01:36:39.545Z,4.20
2023-08-05T01:39:06.309Z,4.43
2023-08-05T01:41:32.960Z,4.37
2023-08-05T01:43:59.659Z,4.63
2023-08-05T01:46:26.300Z,4.57
2023-08-05T01:48:53.661Z,3.90
2023-08-05T01:51:20.373Z,3.72
2023-08-05T01:53:47.046Z,4.53
2023-08-05T01:56:13.750Z,4.22
2023-08-05T01:58:40.437Z,4.70
2023-08-05T02:01:07.238Z,4.40
2023-08-05T02:03:34.179Z,4.00
2023-08-05T02:06:00.943Z,4.30
2023-08-05T02:08:27.655Z,4.22
2023-08-05T02:10:54.321Z,5.07
2023-08-05T02:13:21.026Z,5.45
2023-08-05T02:15:47.779Z,5.45
2023-08-05T02:18:14.606Z,5.60
2023-08-05T02:20:41.389Z,6.25
2023-08-05T02:23:08.094Z,6.50
2023-08-05T02:25:34.886Z,5.88
2023-08-05T02:28:01.662Z,6.00
2023-08-05T02:30:28.335Z,6.17
2023-08-05T02:32:55.023Z,7.28
2023-08-05T02:35:21.685Z,6.82
2023-08-05T02:37:48.479Z,7.18
2023-08-05T02:40:15.640Z,7.18
2023-08-05T02:42:45.620Z,6.67
2023-08-05T02:45:12.277Z,6.70
2023-08-05T02:47:38.980Z,7.78
2023-08-05T02:50:09.232Z,7.72
2023-08-05T02:52:35.853Z,7.88
2023-08-05T02:55:02.578Z,6.93
2023-08-05T02:57:29.250Z,6.90
2023-08-05T02:59:55.958Z,7.68
2023-08-05T03:02:22.686Z,7.85
2023-08-05T03:04:49.341Z,7.72
2023-08-05T03:07:16.030Z,7.23
2023-08-05T03:09:42.724Z,6.95
2023-08-05T03:12:09.516Z,6.95
2023-08-05T03:14:36.184Z,7.38
2023-08-05T03:17:02.883Z,7.05
2023-08-05T03:19:29.585Z,6.93
2023-08-05T03:21:56.284Z,6.03
2023-08-05T03:24:22.974Z,6.05
2023-08-05T03:26:50.046Z,6.07
2023-08-05T03:29:19.001Z,6.60
2023-08-05T03:31:47.642Z,6.80
2023-08-05T03:34:14.418Z,6.50
2023-08-05T03:36:41.092Z,6.50
2023-08-05T03:39:07.778Z,6.82
2023-08-05T03:41:35.406Z,7.97
2023-08-05T03:44:05.108Z,6.53
2023-08-05T03:46:31.739Z,6.32
2023-08-05T03:48:58.653Z,6.82
2023-08-05T03:51:25.325Z,5.82
2023-08-05T03:53:52.042Z,5.78
2023-08-05T03:56:23.061Z,6.77
2023-08-05T03:58:52.421Z,6.32
2023-08-05T04:01:20.610Z,6.25
2023-08-05T04:03:47.576Z,5.95
2023-08-05T04:06:14.270Z,6.80
2023-08-05T04:08:41.204Z,7.13
2023-08-05T04:11:09.214Z,7.00
2023-08-05T04:13:40.415Z,6.90
2023-08-05T04:16:09.825Z,6.90
2023-08-05T04:18:37.752Z,7.50
2023-08-05T04:21:05.665Z,7.30
2023-08-05T04:23:36.054Z,6.93
2023-08-05T04:26:06.037Z,7.65
2023-08-05T04:28:32.777Z,7.50
2023-08-05T04:30:59.884Z,6.60
2023-08-05T04:33:27.111Z,6.30
2023-08-05T04:35:54.188Z,7.32
2023-08-05T04:38:21.503Z,6.95
2023-08-05T04:40:48.956Z,7.93
2023-08-05T04:43:15.790Z,7.95
2023-08-05T04:45:42.596Z,8.27
2023-08-05T04:48:09.424Z,7.50
2023-08-05T04:50:39.294Z,7.45
2023-08-05T04:53:07.596Z,7.55
2023-08-05T04:55:34.569Z,8.07
2023-08-05T04:58:01.944Z,7.43
2023-08-05T05:00:28.909Z,8.18
2023-08-05T05:02:55.667Z,7.18
2023-08-05T05:05:22.548Z,7.47
2023-08-05T05:07:49.278Z,7.18
2023-08-05T05:10:16.146Z,7.73
2023-08-05T05:12:43.062Z,7.30
2023-08-05T05:15:10.091Z,8.00
2023-08-05T05:17:37.489Z,6.95
2023-08-05T05:20:05.613Z,7.22
2023-08-05T05:22:33.201Z,7.23
2023-08-05T05:25:00.199Z,7.15
2023-08-05T05:27:26.852Z,7.47
2023-08-05T05:29:53.688Z,7.45
2023-08-05T05:32:20.417Z,7.68
2023-08-05T05:34:47.198Z,7.30
2023-08-05T05:37:13.880Z,6.88
2023-08-05T05:39:41.324Z,7.30
2023-08-05T05:42:08.067Z,7.57
2023-08-05T05:44:35.103Z,7.50
2023-08-05T05:47:01.744Z,7.17
2023-08-05T05:49:28.955Z,7.63
2023-08-05T05:51:55.638Z,8.50
2023-08-05T05:54:23.064Z,8.20
2023-08-05T05:56:50.315Z,8.05
2023-08-05T05:59:17.309Z,7.70
2023-08-05T06:01:43.946Z,8.38
2023-08-05T06:04:11.013Z,8.80
2023-08-05T06:06:38.446Z,8.98
2023-08-05T06:09:06.997Z,8.18
2023-08-05T06:11:34.026Z,9.07
2023-08-05T06:14:00.764Z,9.23
2023-08-05T06:16:27.670Z,10.50
2023-08-05T06:18:54.393Z,10.50
2023-08-05T06:21:23.431Z,10.32
2023-08-05T06:23:50.533Z,11.13
2023-08-05T06:26:17.360Z,12.00
2023-08-05T06:28:44.084Z,11.13
2023-08-05T06:31:10.917Z,11.65
2023-08-05T06:33:37.675Z,11.95
2023-08-05T06:36:04.630Z,11.83
2023-08-05T06:38:31.315Z,12.23
2023-08-05T06:40:58.004Z,13.52
2023-08-05T06:43:26.714Z,12.65
2023-08-05T06:45:53.899Z,13.75
2023-08-05T06:48:21.190Z,13.13
2023-08-05T06:50:47.829Z,13.43
2023-08-05T06:53:14.572Z,13.05
2023-08-05T06:55:41.276Z,12.65
2023-08-05T06:58:08.296Z,12.85
2023-08-05T07:00:35.045Z,12.77
2023-08-05T07:03:02.946Z,12.40
2023-08-05T07:05:30.560Z,12.68
2023-08-05T07:07:57.492Z,12.77
2023-08-05T07:10:25.017Z,12.13
2023-08-05T07:12:51.842Z,12.50
2023-08-05T07:15:18.569Z,12.68
2023-08-05T07:17:45.372Z,12.45
2023-08-05T07:20:12.306Z,12.85
2023-08-05T07:22:38.984Z,12.32
2023-08-05T07:25:06.117Z,13.07
2023-08-05T07:27:32.786Z,13.88
2023-08-05T07:29:59.530Z,12.77
2023-08-05T07:32:26.262Z,12.85
2023-08-05T07:34:57.132Z,11.73
2023-08-05T07:37:25.501Z,12.07
2023-08-05T07:39:52.614Z,12.27
2023-08-05T07:42:21.917Z,13.10
2023-08-05T07:44:50.916Z,12.75
2023-08-05T07:47:17.525Z,12.80
2023-08-05T07:49:44.282Z,12.70
2023-08-05T07:52:11.015Z,12.40
2023-08-05T07:54:37.704Z,12.63
2023-08-05T07:57:05.276Z,13.05
2023-08-05T07:59:32.002Z,11.18
2023-08-05T08:02:00.314Z,10.90
2023-08-05T08:04:27.318Z,10.43
2023-08-05T08:06:54.034Z,10.60
2023-08-05T08:09:20.916Z,9.98
2023-08-05T08:11:47.563Z,9.27
2023-08-05T08:14:14.215Z,9.80
2023-08-05T08:16:40.879Z,8.90
2023-08-05T08:19:08.513Z,9.07
2023-08-05T08:21:35.865Z,8.70
2023-08-05T08:24:02.592Z,7.95
2023-08-05T08:26:30.295Z,8.10
2023-08-05T08:28:57.022Z,7.55
2023-08-05T08:31:23.914Z,7.75
2023-08-05T08:33:51.427Z,7.82
2023-08-05T08:36:18.319Z,8.00
2023-08-05T08:38:45.564Z,7.07
2023-08-05T08:41:12.353Z,6.65
2023-08-05T08:43:39.255Z,6.18
2023-08-05T08:46:06.683Z,6.03
2023-08-05T08:48:38.553Z,5.35
2023-08-05T08:51:06.926Z,6.00
2023-08-05T08:53:34.155Z,5.10
2023-08-05T08:56:01.446Z,4.90
2023-08-05T08:58:28.164Z,5.25
2023-08-05T09:00:54.890Z,3.97
2023-08-05T09:03:28.731Z,4.20
2023-08-05T09:05:57.491Z,4.32
2023-08-05T09:08:24.325Z,4.80
2023-08-05T09:10:51.280Z,4.32
2023-08-05T09:13:20.619Z,4.78
2023-08-05T09:15:48.705Z,4.33
2023-08-05T09:18:15.636Z,4.30
2023-08-05T09:20:42.445Z,4.65
2023-08-05T09:23:11.647Z,4.70
2023-08-05T09:25:42.941Z,5.25
2023-08-05T09:28:10.293Z,4.83
2023-08-05T09:30:37.246Z,4.60
2023-08-05T09:33:04.499Z,4.65
2023-08-05T09:35:31.637Z,3.80
2023-08-05T09:37:58.903Z,4.80
2023-08-05T09:40:27.412Z,4.47
2023-08-05T09:42:58.416Z,4.85
2023-08-05T09:45:26.465Z,4.43
2023-08-05T09:48:04.835Z,4.78
2023-08-05T09:50:38.192Z,4.82
2023-08-05T09:53:10.545Z,5.07
2023-08-05T09:55:40.521Z,4.40
2023-08-05T09:58:11.067Z,5.07
2023-08-05T10:00:41.403Z,4.43
2023-08-05T10:03:15.028Z,4.68
2023-08-05T10:05:45.335Z,5.27
2023-08-05T10:08:14.508Z,5.30
2023-08-05T10:10:42.449Z,4.93
2023-08-05T10:13:15.405Z,4.43
2023-08-05T10:15:45.788Z,4.75
2023-08-05T10:18:15.413Z,4.83
2023-08-05T10:20:42.466Z,4.93
2023-08-05T10:23:14.937Z,4.90
2023-08-05T10:25:42.845Z,4.70
2023-08-05T10:28:11.213Z,4.82
2023-08-05T10:30:44.517Z,4.53
2023-08-05T10:33:11.730Z,5.03
2023-08-05T10:35:42.450Z,5.47
2023-08-05T10:38:09.505Z,5.53
2023-08-05T10:40:45.468Z,5.30
2023-08-05T10:43:25.605Z,4.47
2023-08-05T10:45:52.361Z,4.50
2023-08-05T10:48:19.117Z,5.18
2023-08-05T10:50:49.113Z,4.80
2023-08-05T10:53:15.935Z,4.60
2023-08-05T10:55:50.465Z,4.90
2023-08-05T10:58:22.796Z,4.97
2023-08-05T11:00:59.615Z,4.75
2023-08-05T11:03:38.472Z,4.55
2023-08-05T11:06:06.174Z,4.90
2023-08-05T11:08:34.339Z,4.40
2023-08-05T11:11:05.932Z,4.50
2023-08-05T11:13:34.490Z,5.45
2023-08-05T11:16:05.340Z,6.28
2023-08-05T11:18:32.903Z,7.13
2023-08-05T11:21:02.336Z,6.77
2023-08-05T11:23:29.479Z,7.68
2023-08-05T11:26:00.693Z,7.18
2023-08-05T11:28:27.928Z,7.50
2023-08-05T11:30:55.232Z,7.15
2023-08-05T11:33:25.212Z,6.83
2023-08-05T11:35:53.384Z,7.60
2023-08-05T11:38:21.633Z,7.68
2023-08-05T11:40:50.535Z,7.63
2023-08-05T11:43:23.372Z,7.43
2023-08-05T11:45:52.340Z,7.57
2023-08-05T11:48:25.810Z,7.35
2023-08-05T11:50:56.862Z,7.88
2023-08-05T11:53:23.596Z,7.30
2023-08-05T11:55:50.326Z,7.60
2023-08-05T11:58:17.054Z,7.10
2023-08-05T12:00:53.169Z,6.88
2023-08-05T12:03:20.376Z,6.60
2023-08-05T12:05:50.004Z,6.28
2023-08-05T12:08:40.276Z,6.88
2023-08-05T12:11:07.088Z,5.93
2023-08-05T12:13:36.861Z,5.57
2023-08-05T12:16:17.478Z,5.47
2023-08-05T12:18:45.483Z,5.50
2023-08-05T12:21:13.057Z,5.68
2023-08-05T12:23:42.339Z,5.40
2023-08-05T12:26:10.152Z,5.70
2023-08-05T12:28:38.049Z,5.57
2023-08-05T12:31:05.543Z,4.90
2023-08-05T12:33:32.322Z,5.00
2023-08-05T12:35:59.063Z,4.90
2023-08-05T12:38:25.755Z,4.97
2023-08-05T12:40:52.440Z,5.22
2023-08-05T12:43:19.225Z,3.60
2023-08-05T12:45:45.976Z,4.63
2023-08-05T12:48:12.625Z,4.83
2023-08-05T12:50:39.324Z,4.80
2023-08-05T12:53:06.150Z,4.63
2023-08-05T12:55:32.775Z,5.03
2023-08-05T12:57:59.401Z,3.75
2023-08-05T13:00:26.184Z,2.70
2023-08-05T13:02:52.870Z,2.70
2023-08-05T13:05:19.659Z,3.75
2023-08-05T13:07:46.443Z,3.03
2023-08-05T13:10:13.176Z,3.17
2023-08-05T13:12:39.858Z,3.67
2023-08-05T13:15:07.146Z,3.65
2023-08-05T13:17:33.893Z,3.67
2023-08-05T13:20:00.710Z,3.05
2023-08-05T13:22:27.453Z,3.70
2023-08-05T13:24:55.549Z,3.40
2023-08-05T13:27:23.100Z,3.50
2023-08-05T13:29:49.767Z,3.30
2023-08-05T13:32:16.430Z,3.72
2023-08-05T13:34:43.096Z,3.85
2023-08-05T13:37:09.756Z,4.03
2023-08-05T13:39:36.412Z,3.47
2023-08-05T13:42:03.438Z,3.78
2023-08-05T13:44:30.217Z,3.90
2023-08-05T13:46:56.946Z,4.05
2023-08-05T13:49:23.612Z,3.57
2023-08-05T13:51:52.220Z,4.40
2023-08-05T13:54:19.448Z,3.67
2023-08-05T13:56:46.130Z,4.30
2023-08-05T13:59:12.893Z,4.22
2023-08-05T14:01:39.590Z,4.27
2023-08-05T14:04:06.321Z,4.68
2023-08-05T14:06:32.967Z,4.90
2023-08-05T14:09:04.858Z,4.57
2023-08-05T14:11:31.519Z,4.18
2023-08-05T14:13:58.259Z,4.50
2023-08-05T14:16:24.968Z,4.65
2023-08-05T14:18:51.752Z,4.50
2023-08-05T14:21:18.520Z,5.00
2023-08-05T14:23:45.320Z,4.65
2023-08-05T14:26:12.379Z,4.77
2023-08-05T14:28:39.055Z,4.75
2023-08-05T14:31:08.925Z,5.25
2023-08-05T14:33:35.690Z,4.57
2023-08-05T14:36:10.525Z,4.38
2023-08-05T14:38:37.210Z,5.07
2023-08-05T14:41:03.891Z,4.53
2023-08-05T14:43:30.571Z,4.65
2023-08-05T14:45:57.228Z,4.53
2023-08-05T14:48:23.966Z,4.28
2023-08-05T14:50:50.693Z,4.40
2023-08-05T14:53:17.313Z,4.63
2023-08-05T14:55:44.012Z,4.68
2023-08-05T14:58:10.674Z,4.30
2023-08-05T15:00:37.390Z,4.00
2023-08-05T15:03:04.157Z,3.93
2023-08-05T15:05:30.916Z,4.20
2023-08-05T15:07:57.560Z,4.40
2023-08-05T15:10:24.214Z,4.22
2023-08-05T15:12:50.861Z,3.90
2023-08-05T15:15:17.658Z,4.60
2023-08-05T15:17:44.409Z,3.97
2023-08-05T15:20:12.430Z,4.65
2023-08-05T15:22:39.513Z,3.80
2023-08-05T15:25:07.643Z,4.25
2023-08-05T15:27:35.131Z,3.77
2023-08-05T15:30:07.107Z,3.85
2023-08-05T15:32:33.874Z,4.13
2023-08-05T15:35:00.688Z,4.18
2023-08-05T15:37:27.434Z,3.97
2023-08-05T15:39:58.210Z,3.90
2023-08-05T15:42:24.970Z,4.10
2023-08-05T15:44:51.792Z,3.78
2023-08-05T15:47:18.412Z,3.85
2023-08-05T15:49:45.115Z,4.97
2023-08-05T15:52:11.872Z,4.03
2023-08-05T15:54:38.693Z,4.22
2023-08-05T15:57:05.608Z,4.00
2023-08-05T15:59:32.320Z,3.80
2023-08-05T16:01:59.075Z,4.15
2023-08-05T16:04:25.872Z,3.80
2023-08-05T16:06:52.615Z,3.55
2023-08-05T16:09:19.383Z,3.70
2023-08-05T16:11:46.085Z,3.20
2023-08-05T16:14:12.797Z,4.13
2023-08-05T16:16:39.587Z,3.40
2023-08-05T16:19:06.358Z,3.85
2023-08-05T16:21:33.059Z,2.83
2023-08-05T16:24:00.475Z,2.40
2023-08-05T16:26:27.716Z,2.55
2023-08-05T16:28:54.617Z,2.20
2023-08-05T16:31:23.603Z,2.22
2023-08-05T16:33:50.638Z,2.58
2023-08-05T16:36:17.364Z,2.50
2023-08-05T16:38:44.768Z,2.05
2023-08-05T16:41:12.185Z,2.17
2023-08-05T16:43:39.357Z,2.40
2023-08-05T16:46:07.853Z,2.58
2023-08-05T16:48:35.206Z,2.40
2023-08-05T16:51:02.066Z,2.25
2023-08-05T16:53:31.922Z,2.33
2023-08-05T16:56:01.053Z,2.40
2023-08-05T16:58:27.948Z,2.50
2023-08-05T17:00:55.889Z,2.33
2023-08-05T17:03:23.058Z,2.40
2023-08-05T17:05:53.475Z,2.03
2023-08-05T17:08:21.177Z,2.25
2023-08-05T17:10:48.114Z,2.47
2023-08-05T17:13:14.819Z,2.95
2023-08-05T17:15:45.608Z,2.53
2023-08-05T17:18:16.286Z,2.80
2023-08-05T17:20:43.355Z,2.90
2023-08-05T17:23:11.113Z,3.00
2023-08-05T17:25:42.418Z,3.13
2023-08-05T17:28:09.431Z,3.10
2023-08-05T17:30:36.566Z,3.30
2023-08-05T17:33:03.722Z,2.85
2023-08-05T17:35:31.492Z,2.88
2023-08-05T17:37:59.264Z,3.15
2023-08-05T17:40:26.731Z,3.47
2023-08-05T17:42:53.396Z,3.50
2023-08-05T17:45:20.127Z,3.20
2023-08-05T17:47:47.534Z,3.58
2023-08-05T17:50:14.649Z,3.47
2023-08-05T17:52:41.337Z,3.60
2023-08-05T17:55:08.425Z,3.53
2023-08-05T17:57:35.100Z,3.75
2023-08-05T18:00:01.815Z,3.92
2023-08-05T18:02:28.498Z,3.75
2023-08-05T18:04:55.162Z,3.50
2023-08-05T18:07:21.867Z,3.50
2023-08-05T18:09:48.569Z,4.07
2023-08-05T18:12:15.341Z,4.28
2023-08-05T18:14:46.043Z,4.03
2023-08-05T18:17:12.752Z,4.40
2023-08-05T18:19:39.401Z,4.10
2023-08-05T18:22:06.389Z,4.40
2023-08-05T18:24:33.014Z,4.93
2023-08-05T18:26:59.696Z,4.05
2023-08-05T18:29:26.356Z,4.22
2023-08-05T18:31:53.347Z,4.37
2023-08-05T18:34:20.424Z,4.65
2023-08-05T18:36:47.196Z,4.65
2023-08-05T18:39:13.815Z,4.47
2023-08-05T18:41:40.690Z,5.15
2023-08-05T18:44:07.391Z,4.97
2023-08-05T18:46:34.125Z,4.80
2023-08-05T18:49:03.520Z,5.50
2023-08-05T18:51:30.222Z,5.70
2023-08-05T18:53:56.934Z,5.05
2023-08-05T18:56:23.623Z,5.53
2023-08-05T18:58:53.755Z,5.70
2023-08-05T19:01:20.981Z,5.85
2023-08-05T19:03:48.481Z,5.60
2023-08-05T19:06:15.417Z,6.15
2023-08-05T19:08:42.165Z,5.53
2023-08-05T19:11:15.155Z,6.03
2023-08-05T19:13:42.189Z,6.28
2023-08-05T19:16:09.346Z,5.82
2023-08-05T19:18:36.396Z,5.40
2023-08-05T19:21:08.620Z,6.53
2023-08-05T19:23:36.600Z,6.50
2023-08-05T19:26:05.697Z,6.38
2023-08-05T19:28:33.686Z,6.28
2023-08-05T19:31:09.915Z,6.00
2023-08-05T19:33:38.139Z,6.90
2023-08-05T19:36:16.031Z,6.00
2023-08-05T19:38:43.775Z,5.90
2023-08-05T19:41:11.492Z,5.95
2023-08-05T19:43:39.258Z,6.53
2023-08-05T19:46:14.061Z,6.10
2023-08-05T19:48:44.208Z,5.97
2023-08-05T19:51:14.199Z,7.15
2023-08-05T19:53:42.991Z,6.18
2023-08-05T19:56:10.142Z,5.68
2023-08-05T19:58:36.841Z,5.73
2023-08-05T20:01:05.918Z,5.78
2023-08-05T20:03:34.518Z,5.90
2023-08-05T20:06:01.232Z,5.32
2023-08-05T20:08:27.952Z,5.50
2023-08-05T20:10:55.376Z,5.23
2023-08-05T20:13:22.195Z,5.60
2023-08-05T20:15:50.848Z,5.30
2023-08-05T20:18:18.000Z,4.85
2023-08-05T20:20:44.813Z,5.20
2023-08-05T20:23:11.568Z,4.77
2023-08-05T20:25:38.239Z,5.00
2023-08-05T20:28:05.088Z,5.35
2023-08-05T20:30:34.992Z,4.63
2023-08-05T20:33:01.863Z,5.22
2023-08-05T20:35:28.570Z,5.23
2023-08-05T20:37:55.270Z,5.43
2023-08-05T20:40:22.040Z,5.00
2023-08-05T20:42:48.782Z,4.90
2023-08-05T20:45:15.643Z,4.85
2023-08-05T20:47:43.910Z,5.00
2023-08-05T20:50:10.865Z,5.60
2023-08-05T20:52:37.627Z,5.15
2023-08-05T20:55:04.767Z,5.68
2023-08-05T20:57:31.614Z,5.72
2023-08-05T20:59:58.252Z,4.60
2023-08-05T21:02:25.027Z,5.72
2023-08-05T21:04:51.911Z,5.20
2023-08-05T21:07:18.772Z,5.35
2023-08-05T21:09:45.526Z,5.60
2023-08-05T21:12:12.369Z,5.20
2023-08-05T21:14:39.052Z,5.22
2023-08-05T21:17:06.174Z,6.00
2023-08-05T21:19:32.817Z,5.85
2023-08-05T21:22:02.096Z,5.75
2023-08-05T21:24:29.339Z,5.73
2023-08-05T21:26:56.065Z,6.68
2023-08-05T21:29:22.755Z,6.50
2023-08-05T21:31:49.391Z,5.75
2023-08-05T21:34:16.082Z,6.03
2023-08-05T21:36:43.126Z,6.67
2023-08-05T21:39:09.961Z,6.20
2023-08-05T21:41:36.879Z,5.97
2023-08-05T21:44:03.635Z,6.03
2023-08-05T21:46:30.294Z,5.97
2023-08-05T21:48:56.993Z,6.50
2023-08-05T21:51:23.630Z,5.90
2023-08-05T21:53:50.282Z,6.43
2023-08-05T21:56:16.913Z,6.10
2023-08-05T21:58:43.584Z,6.50
2023-08-05T22:01:10.259Z,6.70
2023-08-05T22:03:37.082Z,6.30
2023-08-05T22:06:08.293Z,6.63
2023-08-05T22:08:35.200Z,6.95
2023-08-05T22:11:02.219Z,6.10
2023-08-05T22:13:28.896Z,6.33
2023-08-05T22:15:55.910Z,7.35
2023-08-05T22:18:22.718Z,7.50
2023-08-05T22:20:51.050Z,6.75
2023-08-05T22:23:18.256Z,7.05
2023-08-05T22:25:45.685Z,6.77
2023-08-05T22:28:12.456Z,7.00
2023-08-05T22:30:39.184Z,6.72
2023-08-05T22:33:05.903Z,7.60
2023-08-05T22:35:32.737Z,7.15
2023-08-05T22:37:59.418Z,7.03
2023-08-05T22:40:26.127Z,7.53
2023-08-05T22:42:52.841Z,8.10
2023-08-05T22:45:19.479Z,7.88
2023-08-05T22:47:46.308Z,8.00
2023-08-05T22:50:13.036Z,9.37
2023-08-05T22:52:39.947Z,8.43
2023-08-05T22:55:07.021Z,8.95
2023-08-05T22:57:33.721Z,9.10
2023-08-05T23:00:00.528Z,7.93
2023-08-05T23:02:27.302Z,8.77
2023-08-05T23:04:54.078Z,8.63
2023-08-05T23:07:20.763Z,8.80
2023-08-05T23:09:47.447Z,8.93
2023-08-05T23:12:14.177Z,8.73
2023-08-05T23:14:41.051Z,8.27
2023-08-05T23:17:07.694Z,8.15
2023-08-05T23:19:34.306Z,8.40
2023-08-05T23:22:00.993Z,7.90
2023-08-05T23:24:27.691Z,8.40
2023-08-05T23:26:54.328Z,8.50
2023-08-05T23:29:20.956Z,8.63
2023-08-05T23:31:47.598Z,8.35
2023-08-05T23:34:14.326Z,7.28
2023-08-05T23:36:41.023Z,7.97
2023-08-05T23:39:07.720Z,7.90
2023-08-05T23:41:34.340Z,7.38
2023-08-05T23:44:01.037Z,7.70
2023-08-05T23:46:28.079Z,8.10
2023-08-05T23:48:56.512Z,7.82
2023-08-05T23:51:23.236Z,7.93
2023-08-05T23:53:50.681Z,7.10
2023-08-05T23:56:17.359Z,8.23
2023-08-05T23:58:44.137Z,7.95
